createdAt,value
2018-12-12T00:00:05.051Z,980.37
2018-12-12T00:01:05.188Z,980.42
2018-12-12T00:02:05.455Z,980.40
2018-12-12T00:03:05.571Z,980.34
2018-12-12T00:04:04.529Z,980.54
2018-12-12T00:05:05.074Z,980.48
2018-12-12T00:06:05.301Z,980.43
2018-12-12T00:07:05.556Z,980.37
2018-12-12T00:08:04.960Z,980.45
2018-12-12T00:09:04.510Z,980.37
2018-12-12T00:10:05.141Z,980.40
2018-12-12T00:11:05.481Z,980.45
2018-12-12T00:12:05.094Z,980.37
2018-12-12T00:13:05.338Z,980.43
2018-12-12T00:14:05.828Z,980.40
2018-12-12T00:15:04.921Z,980.48
2018-12-12T00:16:05.346Z,980.40
2018-12-12T00:17:04.779Z,980.54
2018-12-12T00:18:05.237Z,980.43
2018-12-12T00:19:04.897Z,980.31
2018-12-12T00:20:05.234Z,980.45
2018-12-12T00:21:05.364Z,980.46
2018-12-12T00:22:05.432Z,980.37
2018-12-12T00:23:04.744Z,980.46
2018-12-12T00:24:05.128Z,980.54
2018-12-12T00:25:04.693Z,980.54
2018-12-12T00:26:04.878Z,980.40
2018-12-12T00:27:05.355Z,980.49
2018-12-12T00:28:09.525Z,980.51
2018-12-12T00:29:04.998Z,980.46
2018-12-12T00:30:05.485Z,980.57
2018-12-12T00:31:04.723Z,980.54
2018-12-12T00:32:05.012Z,980.48
2018-12-12T00:33:05.194Z,980.54
2018-12-12T00:34:05.399Z,980.49
2018-12-12T00:35:05.482Z,980.46
2018-12-12T00:36:04.952Z,980.51
2018-12-12T00:37:05.009Z,980.68
2018-12-12T00:38:05.551Z,980.54
2018-12-12T00:39:04.741Z,980.57
2018-12-12T00:40:04.920Z,980.46
2018-12-12T00:41:05.424Z,980.71
2018-12-12T00:42:04.771Z,980.57
2018-12-12T00:43:05.262Z,980.60
2018-12-12T00:44:05.248Z,980.74
2018-12-12T00:45:05.400Z,980.57
2018-12-12T00:46:05.361Z,980.57
2018-12-12T00:47:04.942Z,980.60
2018-12-12T00:48:10.271Z,980.65
2018-12-12T00:49:04.587Z,980.60
2018-12-12T00:50:04.839Z,980.63
2018-12-12T00:51:04.984Z,980.60
2018-12-12T00:52:05.433Z,980.60
2018-12-12T00:53:05.419Z,980.63
2018-12-12T00:54:04.653Z,980.60
2018-12-12T00:55:04.923Z,980.51
2018-12-12T00:56:04.941Z,980.63
2018-12-12T00:57:05.167Z,980.57
2018-12-12T00:58:04.766Z,980.57
2018-12-12T00:59:05.219Z,980.74
2018-12-12T01:00:05.336Z,980.74
2018-12-12T01:01:04.554Z,980.68
2018-12-12T01:02:05.171Z,980.65
2018-12-12T01:03:04.669Z,980.57
2018-12-12T01:04:05.120Z,980.60
2018-12-12T01:05:05.056Z,980.77
2018-12-12T01:06:05.137Z,980.88
2018-12-12T01:07:04.805Z,980.79
2018-12-12T01:08:05.069Z,980.74
2018-12-12T01:09:05.090Z,980.68
2018-12-12T01:10:04.688Z,980.63
2018-12-12T01:11:04.836Z,980.66
2018-12-12T01:12:04.971Z,980.85
2018-12-12T01:13:04.636Z,980.68
2018-12-12T01:14:05.220Z,980.66
2018-12-12T01:15:04.662Z,980.71
2018-12-12T01:16:04.879Z,980.71
2018-12-12T01:17:05.182Z,980.85
2018-12-12T01:18:04.830Z,980.82
2018-12-12T01:19:05.340Z,980.71
2018-12-12T01:20:05.031Z,980.82
2018-12-12T01:21:05.149Z,980.82
2018-12-12T01:22:05.220Z,980.94
2018-12-12T01:23:05.419Z,980.71
2018-12-12T01:24:05.051Z,980.80
2018-12-12T01:25:05.101Z,980.82
2018-12-12T01:26:05.192Z,980.69
2018-12-12T01:27:05.355Z,980.88
2018-12-12T01:28:09.784Z,980.80
2018-12-12T01:29:05.341Z,980.74
2018-12-12T01:30:04.713Z,980.80
2018-12-12T01:31:04.854Z,980.80
2018-12-12T01:32:05.359Z,980.80
2018-12-12T01:33:05.387Z,980.74
2018-12-12T01:34:04.668Z,980.83
2018-12-12T01:35:05.256Z,980.72
2018-12-12T01:36:04.731Z,980.80
2018-12-12T01:37:05.141Z,980.74
2018-12-12T01:38:04.906Z,980.69
2018-12-12T01:39:05.206Z,980.77
2018-12-12T01:40:05.466Z,980.80
2018-12-12T01:41:04.547Z,980.86
2018-12-12T01:42:04.783Z,980.89
2018-12-12T01:43:04.746Z,980.89
2018-12-12T01:44:04.921Z,980.75
2018-12-12T01:45:05.154Z,981.00
2018-12-12T01:46:05.299Z,980.94
2018-12-12T01:47:05.453Z,980.80
2018-12-12T01:48:10.562Z,980.94
2018-12-12T01:49:05.004Z,980.86
2018-12-12T01:50:05.193Z,980.78
2018-12-12T01:51:05.282Z,980.81
2018-12-12T01:52:04.962Z,980.95
2018-12-12T01:53:05.012Z,980.83
2018-12-12T01:54:05.288Z,980.83
2018-12-12T01:55:04.943Z,980.92
2018-12-12T01:56:05.418Z,980.81
2018-12-12T01:57:04.996Z,980.81
2018-12-12T01:58:04.617Z,980.92
2018-12-12T01:59:04.728Z,980.83
2018-12-12T02:00:04.893Z,981.09
2018-12-12T02:01:05.220Z,980.97
2018-12-12T02:02:05.641Z,980.89
2018-12-12T02:03:04.610Z,981.03
2018-12-12T02:04:04.721Z,981.06
2018-12-12T02:05:04.757Z,981.03
2018-12-12T02:06:04.834Z,980.98
2018-12-12T02:07:06.738Z,980.95
2018-12-12T02:08:04.695Z,981.00
2018-12-12T02:09:04.836Z,981.03
2018-12-12T02:10:05.067Z,981.01
2018-12-12T02:11:04.603Z,981.06
2018-12-12T02:12:05.089Z,981.03
2018-12-12T02:13:05.279Z,981.06
2018-12-12T02:14:05.412Z,980.98
2018-12-12T02:15:04.708Z,981.09
2018-12-12T02:16:04.823Z,981.03
2018-12-12T02:17:05.055Z,981.20
2018-12-12T02:18:05.244Z,981.06
2018-12-12T02:19:04.607Z,981.15
2018-12-12T02:20:05.041Z,981.09
2018-12-12T02:21:04.741Z,981.01
2018-12-12T02:22:04.942Z,981.09
2018-12-12T02:23:05.197Z,981.06
2018-12-12T02:24:05.314Z,981.15
2018-12-12T02:25:05.493Z,981.18
2018-12-12T02:26:05.481Z,981.20
2018-12-12T02:27:04.612Z,981.15
2018-12-12T02:28:05.119Z,981.18
2018-12-12T02:29:05.208Z,981.18
2018-12-12T02:30:05.165Z,981.09
2018-12-12T02:31:04.602Z,981.18
2018-12-12T02:32:09.713Z,981.12
2018-12-12T02:33:05.103Z,981.29
2018-12-12T02:34:04.573Z,981.12
2018-12-12T02:35:04.807Z,980.98
2018-12-12T02:36:04.932Z,981.15
2018-12-12T02:37:05.442Z,981.21
2018-12-12T02:38:05.523Z,981.12
2018-12-12T02:39:04.633Z,981.15
2018-12-12T02:40:05.441Z,981.32
2018-12-12T02:41:04.582Z,981.15
2018-12-12T02:42:05.312Z,981.09
2018-12-12T02:43:05.393Z,981.21
2018-12-12T02:44:04.743Z,981.20
2018-12-12T02:45:04.868Z,981.21
2018-12-12T02:46:05.196Z,981.26
2018-12-12T02:47:04.767Z,981.26
2018-12-12T02:48:04.948Z,981.15
2018-12-12T02:49:05.476Z,981.21
2018-12-12T02:50:04.613Z,981.23
2018-12-12T02:51:05.189Z,981.23
2018-12-12T02:52:04.895Z,981.01
2018-12-12T02:53:05.260Z,981.20
2018-12-12T02:54:04.493Z,981.29
2018-12-12T02:55:04.830Z,981.12
2018-12-12T02:56:05.040Z,981.26
2018-12-12T02:57:05.341Z,981.34
2018-12-12T02:58:04.639Z,981.26
2018-12-12T02:59:04.774Z,981.37
2018-12-12T03:00:05.388Z,981.20
2018-12-12T03:01:04.730Z,981.31
2018-12-12T03:02:05.473Z,981.29
2018-12-12T03:03:05.260Z,981.31
2018-12-12T03:04:05.539Z,981.37
2018-12-12T03:05:04.797Z,981.31
2018-12-12T03:06:10.393Z,981.37
2018-12-12T03:07:04.931Z,981.26
2018-12-12T03:08:05.046Z,981.37
2018-12-12T03:09:04.637Z,981.46
2018-12-12T03:10:05.381Z,981.29
2018-12-12T03:11:05.572Z,981.40
2018-12-12T03:12:04.517Z,981.46
2018-12-12T03:13:04.626Z,981.46
2018-12-12T03:14:04.762Z,981.46
2018-12-12T03:15:04.887Z,981.46
2018-12-12T03:16:04.577Z,981.46
2018-12-12T03:17:04.679Z,981.35
2018-12-12T03:18:04.866Z,981.49
2018-12-12T03:19:05.187Z,981.46
2018-12-12T03:20:04.765Z,981.46
2018-12-12T03:21:05.435Z,981.62
2018-12-12T03:22:04.553Z,981.52
2018-12-12T03:23:04.680Z,981.52
2018-12-12T03:24:05.000Z,981.56
2018-12-12T03:25:05.202Z,981.49
2018-12-12T03:26:05.439Z,981.52
2018-12-12T03:27:04.755Z,981.49
2018-12-12T03:28:05.356Z,981.49
2018-12-12T03:29:05.452Z,981.46
2018-12-12T03:30:04.647Z,981.52
2018-12-12T03:31:04.644Z,981.43
2018-12-12T03:32:04.967Z,981.41
2018-12-12T03:33:04.780Z,981.49
2018-12-12T03:34:04.745Z,981.56
2018-12-12T03:35:05.341Z,981.59
2018-12-12T03:36:05.092Z,981.59
2018-12-12T03:37:04.523Z,981.62
2018-12-12T03:38:04.640Z,981.62
2018-12-12T03:39:05.103Z,981.56
2018-12-12T03:40:10.536Z,981.46
2018-12-12T03:41:04.981Z,981.56
2018-12-12T03:42:05.110Z,981.68
2018-12-12T03:43:05.298Z,981.73
2018-12-12T03:44:04.642Z,981.55
2018-12-12T03:45:04.803Z,981.55
2018-12-12T03:46:05.062Z,981.56
2018-12-12T03:47:05.453Z,981.59
2018-12-12T03:48:05.425Z,981.59
2018-12-12T03:49:04.601Z,981.59
2018-12-12T03:50:04.948Z,981.57
2018-12-12T03:51:05.158Z,981.62
2018-12-12T03:52:05.085Z,981.57
2018-12-12T03:53:05.241Z,981.55
2018-12-12T03:54:04.527Z,981.59
2018-12-12T03:55:05.081Z,981.57
2018-12-12T03:56:05.296Z,981.55
2018-12-12T03:57:05.389Z,981.62
2018-12-12T03:58:05.581Z,981.62
2018-12-12T03:59:05.046Z,981.57
2018-12-12T04:00:04.570Z,981.68
2018-12-12T04:01:05.265Z,981.65
2018-12-12T04:02:04.962Z,981.55
2018-12-12T04:03:05.183Z,981.59
2018-12-12T04:04:04.661Z,981.62
2018-12-12T04:05:04.850Z,981.71
2018-12-12T04:06:05.376Z,981.62
2018-12-12T04:07:05.312Z,981.52
2018-12-12T04:08:04.764Z,981.38
2018-12-12T04:09:05.217Z,981.60
2018-12-12T04:10:04.774Z,981.57
2018-12-12T04:11:05.334Z,981.63
2018-12-12T04:12:05.338Z,981.57
2018-12-12T04:13:05.584Z,981.74
2018-12-12T04:14:05.093Z,981.41
2018-12-12T04:15:05.191Z,981.71
2018-12-12T04:16:04.825Z,981.77
2018-12-12T04:17:05.176Z,981.65
2018-12-12T04:18:05.343Z,981.52
2018-12-12T04:19:04.713Z,981.68
2018-12-12T04:20:05.445Z,981.60
2018-12-12T04:21:04.840Z,981.71
2018-12-12T04:22:05.605Z,981.68
2018-12-12T04:23:05.214Z,981.55
2018-12-12T04:24:05.016Z,981.85
2018-12-12T04:25:05.304Z,981.68
2018-12-12T04:26:04.732Z,981.85
2018-12-12T04:27:05.114Z,981.77
2018-12-12T04:28:10.142Z,981.77
2018-12-12T04:29:04.513Z,981.66
2018-12-12T04:30:05.255Z,981.66
2018-12-12T04:31:05.440Z,981.71
2018-12-12T04:32:05.481Z,981.82
2018-12-12T04:33:05.061Z,981.77
2018-12-12T04:34:05.255Z,981.74
2018-12-12T04:35:05.478Z,981.80
2018-12-12T04:36:04.653Z,981.74
2018-12-12T04:37:05.090Z,981.71
2018-12-12T04:38:04.570Z,981.82
2018-12-12T04:39:04.862Z,981.68
2018-12-12T04:40:05.198Z,981.82
2018-12-12T04:41:04.486Z,981.74
2018-12-12T04:42:05.248Z,981.82
2018-12-12T04:43:05.451Z,981.77
2018-12-12T04:44:04.571Z,982.02
2018-12-12T04:45:04.813Z,981.88
2018-12-12T04:46:05.172Z,981.85
2018-12-12T04:47:05.505Z,981.91
2018-12-12T04:48:04.552Z,981.91
2018-12-12T04:49:04.659Z,981.77
2018-12-12T04:50:05.445Z,981.80
2018-12-12T04:51:05.575Z,981.88
2018-12-12T04:52:04.575Z,981.88
2018-12-12T04:53:04.852Z,981.94
2018-12-12T04:54:05.134Z,981.88
2018-12-12T04:55:05.123Z,981.82
2018-12-12T04:56:05.301Z,981.94
2018-12-12T04:57:05.301Z,981.88
2018-12-12T04:58:05.497Z,981.99
2018-12-12T04:59:04.563Z,981.85
2018-12-12T05:00:05.084Z,981.93
2018-12-12T05:01:05.214Z,981.85
2018-12-12T05:02:05.391Z,981.96
2018-12-12T05:03:04.838Z,981.91
2018-12-12T05:04:05.029Z,981.88
2018-12-12T05:05:05.014Z,981.96
2018-12-12T05:06:04.844Z,981.93
2018-12-12T05:07:04.518Z,981.99
2018-12-12T05:08:04.850Z,982.07
2018-12-12T05:09:04.950Z,981.96
2018-12-12T05:10:05.089Z,982.02
2018-12-12T05:11:05.158Z,982.07
2018-12-12T05:12:05.380Z,981.93
2018-12-12T05:13:04.660Z,981.99
2018-12-12T05:14:04.810Z,981.96
2018-12-12T05:15:05.079Z,981.99
2018-12-12T05:16:05.245Z,981.96
2018-12-12T05:17:05.409Z,981.82
2018-12-12T05:18:05.584Z,981.88
2018-12-12T05:19:04.753Z,981.99
2018-12-12T05:20:05.147Z,981.96
2018-12-12T05:21:04.843Z,981.96
2018-12-12T05:22:06.034Z,981.85
2018-12-12T05:23:05.076Z,981.96
2018-12-12T05:24:04.797Z,981.99
2018-12-12T05:25:05.648Z,981.99
2018-12-12T05:26:04.879Z,981.76
2018-12-12T05:27:05.314Z,981.96
2018-12-12T05:28:09.740Z,981.96
2018-12-12T05:29:05.314Z,981.99
2018-12-12T05:30:04.641Z,982.10
2018-12-12T05:31:04.882Z,981.96
2018-12-12T05:32:05.495Z,982.10
2018-12-12T05:33:04.781Z,982.04
2018-12-12T05:34:05.143Z,981.85
2018-12-12T05:35:05.389Z,982.02
2018-12-12T05:36:04.571Z,982.04
2018-12-12T05:37:04.783Z,982.07
2018-12-12T05:38:04.979Z,982.10
2018-12-12T05:39:04.973Z,982.10
2018-12-12T05:40:04.642Z,982.04
2018-12-12T05:41:04.608Z,982.02
2018-12-12T05:42:04.823Z,981.90
2018-12-12T05:43:05.009Z,982.10
2018-12-12T05:44:05.138Z,981.96
2018-12-12T05:45:04.737Z,982.10
2018-12-12T05:46:05.047Z,982.01
2018-12-12T05:47:05.148Z,982.10
2018-12-12T05:48:04.795Z,982.01
2018-12-12T05:49:05.442Z,981.98
2018-12-12T05:50:05.001Z,982.15
2018-12-12T05:51:05.056Z,982.04
2018-12-12T05:52:05.190Z,982.01
2018-12-12T05:53:05.579Z,981.93
2018-12-12T05:54:04.681Z,982.04
2018-12-12T05:55:04.828Z,982.21
2018-12-12T05:56:05.047Z,982.01
2018-12-12T05:57:10.078Z,982.15
2018-12-12T05:58:05.492Z,981.98
2018-12-12T05:59:05.190Z,982.12
2018-12-12T06:00:05.238Z,982.04
2018-12-12T06:01:05.312Z,982.24
2018-12-12T06:02:04.904Z,981.93
2018-12-12T06:03:05.073Z,982.12
2018-12-12T06:04:05.154Z,982.24
2018-12-12T06:05:04.773Z,982.12
2018-12-12T06:06:05.577Z,982.10
2018-12-12T06:07:04.731Z,982.21
2018-12-12T06:08:05.347Z,982.12
2018-12-12T06:09:05.182Z,982.32
2018-12-12T06:10:04.663Z,982.15
2018-12-12T06:11:05.310Z,982.15
2018-12-12T06:12:05.300Z,982.15
2018-12-12T06:13:05.507Z,982.35
2018-12-12T06:14:04.693Z,982.26
2018-12-12T06:15:05.007Z,982.18
2018-12-12T06:16:05.200Z,982.26
2018-12-12T06:17:05.288Z,982.15
2018-12-12T06:18:05.388Z,982.09
2018-12-12T06:19:04.853Z,982.18
2018-12-12T06:20:05.440Z,982.12
2018-12-12T06:21:05.049Z,982.18
2018-12-12T06:22:05.209Z,982.18
2018-12-12T06:23:04.684Z,982.21
2018-12-12T06:24:04.998Z,982.26
2018-12-12T06:25:05.017Z,982.26
2018-12-12T06:26:05.011Z,982.23
2018-12-12T06:27:04.608Z,982.21
2018-12-12T06:28:04.502Z,982.21
2018-12-12T06:29:04.664Z,982.23
2018-12-12T06:30:04.804Z,982.40
2018-12-12T06:31:04.777Z,982.32
2018-12-12T06:32:05.325Z,982.32
2018-12-12T06:33:05.389Z,982.26
2018-12-12T06:34:05.375Z,982.35
2018-12-12T06:35:04.668Z,982.35
2018-12-12T06:36:05.176Z,982.32
2018-12-12T06:37:05.392Z,982.29
2018-12-12T06:38:04.710Z,982.26
2018-12-12T06:39:04.810Z,982.35
2018-12-12T06:40:05.049Z,982.46
2018-12-12T06:41:05.392Z,982.35
2018-12-12T06:42:05.402Z,982.40
2018-12-12T06:43:05.473Z,982.37
2018-12-12T06:44:05.139Z,982.40
2018-12-12T06:45:05.545Z,982.21
2018-12-12T06:46:04.543Z,982.23
2018-12-12T06:47:04.868Z,982.35
2018-12-12T06:48:04.996Z,982.37
2018-12-12T06:49:05.055Z,982.32
2018-12-12T06:50:05.236Z,982.09
2018-12-12T06:51:05.008Z,982.26
2018-12-12T06:52:04.617Z,982.37
2018-12-12T06:53:04.774Z,982.35
2018-12-12T06:54:05.179Z,982.26
2018-12-12T06:55:05.265Z,982.40
2018-12-12T06:56:04.529Z,982.35
2018-12-12T06:57:05.557Z,982.26
2018-12-12T06:58:05.031Z,982.43
2018-12-12T06:59:05.111Z,982.40
2018-12-12T07:00:04.753Z,982.26
2018-12-12T07:01:05.070Z,982.46
2018-12-12T07:02:05.291Z,982.43
2018-12-12T07:03:05.494Z,982.40
2018-12-12T07:04:04.558Z,982.40
2018-12-12T07:05:10.212Z,982.32
2018-12-12T07:06:04.783Z,982.37
2018-12-12T07:07:04.702Z,982.35
2018-12-12T07:08:05.092Z,982.40
2018-12-12T07:09:05.139Z,982.46
2018-12-12T07:10:05.729Z,982.37
2018-12-12T07:11:04.626Z,982.35
2018-12-12T07:12:05.438Z,982.49
2018-12-12T07:13:04.715Z,982.40
2018-12-12T07:14:04.730Z,982.46
2018-12-12T07:15:04.952Z,982.54
2018-12-12T07:16:05.108Z,982.51
2018-12-12T07:17:05.298Z,982.40
2018-12-12T07:18:04.669Z,982.51
2018-12-12T07:19:04.901Z,982.51
2018-12-12T07:20:04.918Z,982.40
2018-12-12T07:21:05.206Z,982.40
2018-12-12T07:22:05.510Z,982.40
2018-12-12T07:23:04.898Z,982.43
2018-12-12T07:24:04.992Z,982.57
2018-12-12T07:25:05.276Z,982.40
2018-12-12T07:26:04.776Z,982.46
2018-12-12T07:27:04.915Z,982.46
2018-12-12T07:28:05.148Z,982.49
2018-12-12T07:29:05.299Z,982.49
2018-12-12T07:30:04.917Z,982.49
2018-12-12T07:31:04.535Z,982.38
2018-12-12T07:32:05.337Z,982.40
2018-12-12T07:33:05.473Z,982.43
2018-12-12T07:34:04.679Z,982.60
2018-12-12T07:35:04.906Z,982.46
2018-12-12T07:36:04.998Z,982.43
2018-12-12T07:37:05.332Z,982.49
2018-12-12T07:38:04.896Z,982.43
2018-12-12T07:39:09.968Z,982.52
2018-12-12T07:40:04.945Z,982.38
2018-12-12T07:41:05.256Z,982.46
2018-12-12T07:42:05.180Z,982.68
2018-12-12T07:43:05.542Z,982.63
2018-12-12T07:44:04.641Z,982.54
2018-12-12T07:45:04.991Z,982.49
2018-12-12T07:46:05.231Z,982.57
2018-12-12T07:47:04.873Z,982.63
2018-12-12T07:48:05.135Z,982.57
2018-12-12T07:49:04.576Z,982.68
2018-12-12T07:50:05.192Z,982.63
2018-12-12T07:51:05.531Z,982.63
2018-12-12T07:52:05.149Z,982.63
2018-12-12T07:53:05.001Z,982.60
2018-12-12T07:54:05.024Z,982.43
2018-12-12T07:55:04.783Z,982.60
2018-12-12T07:56:05.361Z,982.66
2018-12-12T07:57:04.841Z,982.57
2018-12-12T07:58:05.119Z,982.68
2018-12-12T07:59:10.528Z,982.60
2018-12-12T08:00:05.142Z,982.74
2018-12-12T08:01:04.769Z,982.82
2018-12-12T08:02:05.619Z,982.60
2018-12-12T08:03:06.901Z,982.60
2018-12-12T08:04:04.571Z,982.74
2018-12-12T08:05:04.596Z,982.68
2018-12-12T08:06:05.036Z,982.82
2018-12-12T08:07:05.130Z,982.71
2018-12-12T08:08:05.505Z,982.68
2018-12-12T08:09:04.841Z,982.79
2018-12-12T08:10:04.958Z,982.66
2018-12-12T08:11:05.203Z,982.84
2018-12-12T08:12:04.772Z,982.84
2018-12-12T08:13:05.192Z,982.79
2018-12-12T08:14:05.493Z,982.79
2018-12-12T08:15:04.973Z,982.79
2018-12-12T08:16:05.194Z,982.90
2018-12-12T08:17:05.202Z,982.93
2018-12-12T08:18:04.683Z,982.68
2018-12-12T08:19:05.176Z,982.84
2018-12-12T08:20:04.644Z,982.90
2018-12-12T08:21:05.168Z,982.79
2018-12-12T08:22:06.722Z,982.93
2018-12-12T08:23:05.484Z,982.93
2018-12-12T08:24:05.086Z,982.82
2018-12-12T08:25:04.673Z,982.93
2018-12-12T08:26:05.205Z,983.01
2018-12-12T08:27:05.694Z,982.96
2018-12-12T08:28:09.776Z,983.01
2018-12-12T08:29:05.277Z,982.96
2018-12-12T08:30:04.697Z,983.04
2018-12-12T08:31:05.038Z,982.98
2018-12-12T08:32:04.796Z,983.04
2018-12-12T08:33:11.522Z,983.01
2018-12-12T08:34:05.254Z,983.01
2018-12-12T08:35:04.642Z,983.07
2018-12-12T08:36:04.891Z,982.99
2018-12-12T08:37:05.379Z,982.96
2018-12-12T08:38:04.604Z,983.04
2018-12-12T08:39:04.910Z,983.12
2018-12-12T08:40:05.052Z,983.01
2018-12-12T08:41:05.012Z,983.07
2018-12-12T08:42:04.678Z,982.96
2018-12-12T08:43:05.063Z,982.96
2018-12-12T08:44:05.454Z,983.07
2018-12-12T08:45:05.021Z,983.18
2018-12-12T08:46:05.227Z,983.01
2018-12-12T08:47:04.692Z,983.01
2018-12-12T08:48:10.094Z,983.04
2018-12-12T08:49:04.552Z,983.18
2018-12-12T08:50:04.849Z,983.24
2018-12-12T08:51:04.846Z,983.04
2018-12-12T08:52:05.242Z,983.26
2018-12-12T08:53:05.838Z,983.13
2018-12-12T08:54:04.819Z,983.24
2018-12-12T08:55:04.958Z,983.35
2018-12-12T08:56:04.982Z,983.13
2018-12-12T08:57:05.262Z,983.18
2018-12-12T08:58:05.550Z,983.15
2018-12-12T08:59:05.499Z,983.18
2018-12-12T09:00:05.136Z,983.29
2018-12-12T09:01:05.106Z,983.13
2018-12-12T09:02:05.936Z,983.15
2018-12-12T09:03:04.555Z,983.04
2018-12-12T09:04:04.734Z,983.21
2018-12-12T09:05:04.898Z,983.27
2018-12-12T09:06:05.010Z,983.24
2018-12-12T09:07:05.062Z,983.18
2018-12-12T09:08:04.752Z,983.15
2018-12-12T09:09:04.879Z,983.35
2018-12-12T09:10:05.415Z,983.32
2018-12-12T09:11:05.580Z,983.29
2018-12-12T09:12:05.595Z,983.32
2018-12-12T09:13:04.802Z,983.26
2018-12-12T09:14:04.923Z,983.29
2018-12-12T09:15:05.429Z,983.29
2018-12-12T09:16:04.706Z,983.15
2018-12-12T09:17:10.172Z,983.29
2018-12-12T09:18:04.805Z,983.29
2018-12-12T09:19:04.540Z,983.21
2018-12-12T09:20:05.145Z,983.07
2018-12-12T09:21:04.777Z,983.32
2018-12-12T09:22:04.806Z,983.21
2018-12-12T09:23:05.146Z,983.18
2018-12-12T09:24:05.194Z,983.26
2018-12-12T09:25:04.889Z,983.23
2018-12-12T09:26:05.365Z,983.26
2018-12-12T09:27:04.599Z,983.32
2018-12-12T09:28:09.610Z,983.32
2018-12-12T09:29:05.036Z,983.21
2018-12-12T09:30:05.473Z,983.26
2018-12-12T09:31:04.773Z,983.21
2018-12-12T09:32:05.269Z,983.21
2018-12-12T09:33:05.410Z,983.36
2018-12-12T09:34:05.454Z,983.36
2018-12-12T09:35:04.847Z,983.48
2018-12-12T09:36:05.444Z,983.36
2018-12-12T09:37:04.833Z,983.36
2018-12-12T09:38:05.159Z,983.35
2018-12-12T09:39:04.554Z,983.32
2018-12-12T09:40:04.620Z,983.35
2018-12-12T09:41:04.752Z,983.23
2018-12-12T09:42:05.418Z,983.36
2018-12-12T09:43:04.789Z,983.29
2018-12-12T09:44:05.028Z,983.36
2018-12-12T09:45:05.401Z,983.29
2018-12-12T09:46:05.459Z,983.45
2018-12-12T09:47:05.481Z,983.29
2018-12-12T09:48:10.077Z,983.26
2018-12-12T09:49:04.591Z,983.26
2018-12-12T09:50:04.614Z,983.26
2018-12-12T09:51:07.860Z,983.39
2018-12-12T09:52:05.497Z,983.42
2018-12-12T09:53:05.178Z,983.29
2018-12-12T09:54:04.745Z,983.36
2018-12-12T09:55:04.776Z,983.48
2018-12-12T09:56:05.261Z,983.29
2018-12-12T09:57:05.396Z,983.35
2018-12-12T09:58:05.433Z,983.42
2018-12-12T09:59:04.756Z,983.45
2018-12-12T10:00:05.036Z,983.48
2018-12-12T10:01:06.751Z,983.48
2018-12-12T10:02:05.581Z,983.48
2018-12-12T10:03:04.995Z,983.42
2018-12-12T10:04:04.760Z,983.42
2018-12-12T10:05:05.356Z,983.45
2018-12-12T10:06:04.900Z,983.45
2018-12-12T10:07:05.402Z,983.45
2018-12-12T10:08:04.673Z,983.48
2018-12-12T10:09:04.656Z,983.50
2018-12-12T10:10:04.902Z,983.36
2018-12-12T10:11:05.319Z,983.36
2018-12-12T10:12:04.778Z,983.32
2018-12-12T10:13:04.876Z,983.39
2018-12-12T10:14:04.538Z,983.47
2018-12-12T10:15:04.779Z,983.32
2018-12-12T10:16:05.193Z,983.39
2018-12-12T10:17:05.517Z,983.32
2018-12-12T10:18:04.705Z,983.35
2018-12-12T10:19:04.892Z,983.36
2018-12-12T10:20:05.449Z,983.39
2018-12-12T10:21:05.175Z,983.53
2018-12-12T10:22:05.270Z,983.42
2018-12-12T10:23:04.884Z,983.39
2018-12-12T10:24:05.018Z,983.26
2018-12-12T10:25:04.592Z,983.51
2018-12-12T10:26:04.765Z,983.35
2018-12-12T10:27:05.057Z,983.37
2018-12-12T10:28:05.462Z,983.32
2018-12-12T10:29:04.986Z,983.35
2018-12-12T10:30:05.399Z,983.32
2018-12-12T10:31:04.682Z,983.24
2018-12-12T10:32:05.840Z,983.35
2018-12-12T10:33:05.525Z,983.37
2018-12-12T10:34:05.161Z,983.29
2018-12-12T10:35:05.137Z,983.27
2018-12-12T10:36:05.317Z,983.29
2018-12-12T10:37:04.956Z,983.45
2018-12-12T10:38:05.430Z,983.27
2018-12-12T10:39:05.130Z,983.13
2018-12-12T10:40:05.299Z,983.42
2018-12-12T10:41:04.563Z,983.37
2018-12-12T10:42:05.045Z,983.35
2018-12-12T10:43:05.302Z,983.39
2018-12-12T10:44:04.707Z,983.37
2018-12-12T10:45:05.244Z,983.35
2018-12-12T10:46:05.328Z,983.42
2018-12-12T10:47:05.084Z,983.32
2018-12-12T10:48:05.365Z,983.29
2018-12-12T10:49:05.351Z,983.37
2018-12-12T10:50:05.133Z,983.39
2018-12-12T10:51:05.096Z,983.42
2018-12-12T10:52:05.250Z,983.45
2018-12-12T10:53:05.341Z,983.37
2018-12-12T10:54:04.565Z,983.26
2018-12-12T10:55:04.706Z,983.35
2018-12-12T10:56:05.048Z,983.45
2018-12-12T10:57:05.468Z,983.32
2018-12-12T10:58:04.871Z,983.36
2018-12-12T10:59:05.403Z,983.39
2018-12-12T11:00:04.619Z,983.35
2018-12-12T11:01:04.728Z,983.45
2018-12-12T11:02:05.479Z,983.32
2018-12-12T11:03:05.008Z,983.32
2018-12-12T11:04:04.685Z,983.29
2018-12-12T11:05:04.896Z,983.23
2018-12-12T11:06:05.349Z,983.29
2018-12-12T11:07:05.044Z,983.20
2018-12-12T11:08:05.584Z,983.12
2018-12-12T11:09:04.793Z,983.15
2018-12-12T11:10:04.814Z,983.23
2018-12-12T11:11:05.341Z,983.12
2018-12-12T11:12:05.659Z,983.09
2018-12-12T11:13:04.835Z,983.17
2018-12-12T11:14:04.866Z,983.17
2018-12-12T11:15:04.966Z,983.09
2018-12-12T11:16:05.608Z,983.09
2018-12-12T11:17:05.466Z,983.26
2018-12-12T11:18:05.043Z,983.14
2018-12-12T11:19:05.089Z,983.23
2018-12-12T11:20:05.361Z,983.06
2018-12-12T11:21:05.347Z,983.20
2018-12-12T11:22:05.553Z,983.11
2018-12-12T11:23:05.088Z,983.28
2018-12-12T11:24:05.577Z,983.14
2018-12-12T11:25:05.003Z,983.28
2018-12-12T11:26:05.472Z,983.28
2018-12-12T11:27:05.478Z,983.17
2018-12-12T11:28:09.793Z,983.33
2018-12-12T11:29:05.179Z,983.25
2018-12-12T11:30:05.460Z,983.28
2018-12-12T11:31:04.709Z,983.30
2018-12-12T11:32:05.163Z,983.16
2018-12-12T11:33:04.714Z,983.28
2018-12-12T11:34:05.049Z,983.30
2018-12-12T11:35:05.337Z,983.22
2018-12-12T11:36:04.760Z,983.16
2018-12-12T11:37:05.095Z,983.16
2018-12-12T11:38:04.629Z,983.22
2018-12-12T11:39:04.718Z,983.25
2018-12-12T11:40:04.764Z,983.33
2018-12-12T11:41:04.988Z,983.19
2018-12-12T11:42:05.144Z,983.27
2018-12-12T11:43:05.201Z,983.30
2018-12-12T11:44:05.489Z,983.33
2018-12-12T11:45:04.504Z,983.22
2018-12-12T11:46:04.602Z,983.25
2018-12-12T11:47:04.938Z,983.19
2018-12-12T11:48:05.398Z,983.25
2018-12-12T11:49:05.516Z,983.13
2018-12-12T11:50:04.638Z,983.13
2018-12-12T11:51:04.761Z,983.11
2018-12-12T11:52:05.862Z,983.16
2018-12-12T11:53:05.441Z,983.22
2018-12-12T11:54:04.919Z,983.22
2018-12-12T11:55:09.664Z,983.33
2018-12-12T11:56:05.081Z,983.27
2018-12-12T11:57:05.417Z,983.16
2018-12-12T11:58:05.419Z,983.19
2018-12-12T11:59:04.634Z,983.16
2018-12-12T12:00:05.016Z,983.40
2018-12-12T12:01:05.135Z,983.27
2018-12-12T12:02:04.787Z,983.24
2018-12-12T12:03:04.999Z,983.16
2018-12-12T12:04:05.446Z,983.22
2018-12-12T12:05:05.196Z,983.27
2018-12-12T12:06:05.003Z,983.27
2018-12-12T12:07:04.955Z,983.40
2018-12-12T12:08:05.641Z,983.25
2018-12-12T12:09:04.890Z,983.25
2018-12-12T12:10:05.244Z,983.27
2018-12-12T12:11:05.468Z,983.25
2018-12-12T12:12:04.677Z,983.35
2018-12-12T12:13:04.950Z,983.25
2018-12-12T12:14:05.385Z,983.11
2018-12-12T12:15:04.525Z,983.28
2018-12-12T12:16:04.978Z,983.14
2018-12-12T12:17:05.561Z,983.28
2018-12-12T12:18:05.116Z,983.38
2018-12-12T12:19:05.496Z,983.38
2018-12-12T12:20:04.799Z,983.17
2018-12-12T12:21:05.171Z,983.30
2018-12-12T12:22:05.357Z,983.28
2018-12-12T12:23:04.611Z,983.30
2018-12-12T12:24:04.991Z,983.38
2018-12-12T12:25:05.327Z,983.28
2018-12-12T12:26:04.695Z,983.22
2018-12-12T12:27:04.515Z,983.19
2018-12-12T12:28:09.869Z,983.22